Time;durP1;ratioP1;P1;durP2;ratioP2;P2;SDS_P1;SDS_P2;PMS_P1;PMS_P2;Temp;Humidity;BMP_temperature;BMP_pressure;BME280_temperature;BME280_humidity;BME280_pressure;Samples;Min_cycle;Max_cycle;Signal;HPM_P1;HPM_P2
2022/08/17 00:00:54;;;;;;;41.53;36.95;;;;;;;;;;4927589;29;20491;-78
2022/08/17 00:03:23;;;;;;;41.05;36.75;;;;;;;21.04;92.96;69108.88;4939834;28;20091;-78
2022/08/17 00:05:49;;;;;;;39.20;35.03;;;;;;;;;;4948271;28;20043;-78
2022/08/17 00:08:16;;;;;;;41.47;36.97;;;;;;;;;;4946096;28;20058;-78
2022/08/17 00:10:42;;;;;;;41.70;36.78;;;;;;;;;;4947332;29;20071;-78
2022/08/17 00:13:33;;;;;;;42.13;37.63;;;;;;;20.98;91.98;69107.41;4944246;28;20402;-77
2022/08/17 00:16:00;;;;;;;41.83;35.47;;;;;;;;;;4935106;28;20044;-78
2022/08/17 00:18:28;;;;;;;40.45;36.25;;;;;;;21.11;92.62;69122.84;4928480;29;20055;-78
2022/08/17 00:20:55;;;;;;;45.28;39.08;;;;;;;21.10;95.14;69116.31;4930161;29;20047;-77
2022/08/17 00:23:21;;;;;;;42.08;37.88;;;;;;;;;;4935700;28;20047;-77
2022/08/17 00:25:47;;;;;;;40.92;36.78;;;;;;;21.04;92.91;69114.84;4932914;28;20047;-77
2022/08/17 00:28:16;;;;;;;40.13;35.72;;;;;;;21.10;92.94;69113.59;4922483;29;20495;-77
2022/08/17 00:30:42;;;;;;;;;;;;;;;21.10;95.10;69121.16;4935364;29;20052;-77
2022/08/17 00:33:15;;;;;;;43.33;38.83;;;;;;;;;;4933089;29;20390;-78
2022/08/17 00:35:42;;;;;;;44.78;40.08;;;;;;;;;;4926824;29;20507;-78
2022/08/17 00:38:08;;;;;;;45.95;41.30;;;;;;;21.01;96.64;69114.13;4927948;29;20620;-78
2022/08/17 00:40:42;;;;;;;45.45;40.95;;;;;;;;;;4927667;29;20043;-77
2022/08/17 00:43:15;;;;;;;44.40;39.80;;;;;;;;;;4934911;29;20106;-77
2022/08/17 00:45:42;;;;;;;45.13;40.28;;;;;;;20.83;96.13;69085.41;4927965;29;20488;-77
2022/08/17 00:48:07;;;;;;;47.92;43.15;;;;;;;;;;4934481;29;20074;-76
2022/08/17 00:50:34;;;;;;;45.15;40.58;;;;;;;20.77;97.94;69075.84;4934952;29;20107;-77
2022/08/17 00:52:59;;;;;;;43.33;39.00;;;;;;;;;;4942707;29;20074;-77
2022/08/17 00:55:26;;;;;;;43.60;39.05;;;;;;;20.79;97.34;69086.81;4950623;28;20070;-77
2022/08/17 00:57:54;;;;;;;43.40;37.83;;;;;;;;;;4949487;28;20058;-78
2022/08/17 01:00:27;;;;;;;43.47;38.87;;;;;;;;;;4936243;29;20055;-78
2022/08/17 01:03:05;;;;;;;46.38;40.95;;;;;;;;;;4943410;28;20786;-78
2022/08/17 01:05:32;;;;;;;45.15;38.63;;;;;;;20.81;98.37;69083.13;4951848;28;20047;-78
2022/08/17 01:08:00;;;;;;;45.20;40.63;;;;;;;20.82;99.02;69084.84;4934248;28;20411;-78
2022/08/17 01:10:47;;;;;;;46.60;39.45;;;;;;;20.80;99.46;69082.56;4944307;28;20140;-77
2022/08/17 01:13:14;;;;;;;47.38;41.60;;;;;;;20.74;99.59;69081.09;4937447;28;20455;-78
2022/08/17 01:15:53;;;;;;;48.13;39.80;;;;;;;20.78;99.42;69079.69;4950483;28;20047;-78
2022/08/17 01:18:19;;;;;;;49.13;41.53;;;;;;;20.79;99.18;69081.41;4944197;29;20467;-79
2022/08/17 01:20:47;;;;;;;48.20;43.00;;;;;;;;;;4945431;28;20039;-78
2022/08/17 01:23:13;;;;;;;48.25;43.08;;;;;;;20.85;100.00;69093.69;4949737;28;20248;-78
2022/08/17 01:25:39;;;;;;;52.67;42.13;;;;;;;;;;4946179;28;20113;-78
2022/08/17 01:28:05;;;;;;;50.22;44.85;;;;;;;20.81;100.00;69088.53;4954147;28;20058;-78
2022/08/17 01:30:30;;;;;;;50.22;44.95;;;;;;;;;;4950486;28;20408;-78
2022/08/17 01:32:55;;;;;;;48.78;43.45;;;;;;;;;;4931616;29;20066;-78
2022/08/17 01:35:21;;;;;;;52.00;44.58;;;;;;;;;;4939271;29;20521;-78
2022/08/17 01:37:46;;;;;;;51.70;43.37;;;;;;;20.83;99.77;69091.41;4941360;28;20039;-78
2022/08/17 01:40:15;;;;;;;49.53;43.60;;;;;;;20.85;99.13;69093.09;4952459;28;20289;-78
2022/08/17 01:42:52;;;;;;;50.83;42.15;;;;;;;;;;4952582;28;20051;-78
2022/08/17 01:45:22;;;;;;;47.53;41.92;;;;;;;20.82;99.48;69090.25;4939370;29;20048;-79
2022/08/17 01:47:49;;;;;;;49.83;44.28;;;;;;;20.81;100.00;69081.00;4931458;28;20061;-79
2022/08/17 01:50:18;;;;;;;51.92;46.10;;;;;;;20.84;100.00;69091.97;4940775;28;20039;-77
2022/08/17 01:52:44;;;;;;;48.95;42.53;;;;;;;;;;4947167;28;20509;-78
2022/08/17 01:55:10;;;;;;;50.65;44.85;;;;;;;;;;4950923;28;20343;-78
2022/08/17 01:57:35;;;;;;;52.28;45.03;;;;;;;;;;4943383;28;20047;-78
2022/08/17 02:00:02;;;;;;;53.03;45.83;;;;;;;20.70;100.00;69071.13;4948016;28;20047;-78
2022/08/17 02:02:27;;;;;;;52.15;44.63;;;;;;;;;;4941596;29;20659;-78
2022/08/17 02:04:53;;;;;;;51.95;45.90;;;;;;;20.62;100.00;69067.38;4951628;28;20048;-78
2022/08/17 02:07:18;;;;;;;51.75;46.15;;;;;;;;;;4941828;29;20152;-78
2022/08/17 02:09:43;;;;;;;57.83;49.78;;;;;;;20.56;100.00;69060.50;4932201;29;20059;-78
2022/08/17 02:12:09;;;;;;;58.38;48.28;;;;;;;20.50;100.00;69054.19;4946713;28;20054;-78
2022/08/17 02:14:34;;;;;;;56.88;48.35;;;;;;;20.45;100.00;69049.03;4948900;28;20039;-77
2022/08/17 02:17:00;;;;;;;54.67;48.80;;;;;;;20.38;100.00;69040.47;4937593;29;20471;-78
2022/08/17 02:19:25;;;;;;;55.10;48.25;;;;;;;20.31;100.00;69027.63;4949628;28;20603;-78
2022/08/17 02:21:52;;;;;;;57.55;50.00;;;;;;;20.28;100.00;69030.19;4947676;28;20710;-78
2022/08/17 02:24:30;;;;;;;57.72;48.60;;;;;;;20.23;100.00;69027.19;4939381;28;20302;-78
2022/08/17 02:26:56;;;;;;;53.88;47.10;;;;;;;20.19;100.00;69019.31;4936243;29;20291;-79
2022/08/17 02:29:21;;;;;;;53.78;47.75;;;;;;;;;;4930099;29;20734;-78
2022/08/17 02:31:47;;;;;;;55.30;47.05;;;;;;;20.13;100.00;69013.03;4886272;28;20043;-77
2022/08/17 02:34:13;;;;;;;60.53;50.28;;;;;;;20.11;100.00;69010.16;4947296;28;20027;-77
2022/08/17 02:36:38;;;;;;;54.75;46.72;;;;;;;;;;4945678;28;20078;-77
2022/08/17 02:39:06;;;;;;;57.67;50.22;;;;;;;20.03;100.00;68996.78;4932498;29;20611;-77
2022/08/17 02:41:32;;;;;;;55.97;49.83;;;;;;;20.01;100.00;68999.88;4939770;29;20044;-78
2022/08/17 02:43:57;;;;;;;57.95;47.92;;;;;;;;;;4944904;28;20291;-78
2022/08/17 02:46:22;;;;;;;60.72;50.92;;;;;;;;;;4934663;28;20051;-77
2022/08/17 02:48:48;;;;;;;58.30;47.95;;;;;;;;;;4937425;29;20537;-78
2022/08/17 02:51:13;;;;;;;57.20;50.90;;;;;;;;;;4940289;28;20043;-78
2022/08/17 02:53:39;;;;;;;56.75;48.17;;;;;;;;;;4947837;28;20236;-77
2022/08/17 02:56:05;;;;;;;55.22;48.63;;;;;;;19.88;100.00;68984.44;4938792;28;20042;-77
2022/08/17 02:58:30;;;;;;;56.30;47.53;;;;;;;19.87;100.00;68983.88;4948019;28;20035;-77
2022/08/17 03:00:56;;;;;;;57.20;47.42;;;;;;;19.81;100.00;68971.63;4937460;28;20055;-77
2022/08/17 03:03:21;;;;;;;56.00;48.05;;;;;;;;;;4932412;28;20074;-78
2022/08/17 03:05:49;;;;;;;58.33;48.70;;;;;;;19.78;100.00;68968.19;4941921;28;20495;-78
2022/08/17 03:08:15;;;;;;;55.78;47.42;;;;;;;19.76;100.00;68965.91;4939900;28;20280;-77
2022/08/17 03:10:40;;;;;;;55.88;46.97;;;;;;;;;;4930469;29;20046;-77
2022/08/17 03:13:06;;;;;;;56.65;48.08;;;;;;;;;;4949033;28;20053;-78
2022/08/17 03:15:32;;;;;;;56.63;48.97;;;;;;;;;;4945157;28;20139;-77
2022/08/17 03:17:59;;;;;;;56.90;46.97;;;;;;;;;;4929650;29;20311;-78
2022/08/17 03:20:26;;;;;;;52.53;46.72;;;;;;;19.67;100.00;68955.63;4930603;29;20090;-78
2022/08/17 03:22:53;;;;;;;54.78;48.60;;;;;;;;;;4944074;28;20479;-77
2022/08/17 03:25:25;;;;;;;54.13;47.35;;;;;;;19.66;100.00;68960.47;4934209;29;20054;-78
2022/08/17 03:27:50;;;;;;;56.03;46.03;;;;;;;;;;4932823;29;20043;-77
2022/08/17 03:30:16;;;;;;;57.33;48.67;;;;;;;19.61;100.00;68949.31;4942141;28;20410;-77
2022/08/17 03:32:47;;;;;;;56.53;46.92;;;;;;;19.65;100.00;68953.91;4942772;28;20039;-77
2022/08/17 03:35:14;;;;;;;54.75;47.65;;;;;;;;;;4940045;28;20042;-76
2022/08/17 03:37:39;;;;;;;51.40;43.47;;;;;;;19.60;100.00;68953.59;4942794;28;20043;-77
2022/08/17 03:40:06;;;;;;;55.80;46.10;;;;;;;;;;4949232;28;20039;-77
2022/08/17 03:42:32;;;;;;;53.60;43.83;;;;;;;19.57;100.00;68942.06;4947818;28;20062;-77
2022/08/17 03:44:58;;;;;;;52.25;43.47;;;;;;;;;;4951980;28;20039;-77
2022/08/17 03:58:12;;;;;;;51.95;45.38;;;;;;;19.47;100.00;68938.72;4944749;28;20066;-77
2022/08/17 04:00:41;;;;;;;53.90;45.75;;;;;;;;;;4943107;29;20489;-79
2022/08/17 04:03:06;;;;;;;52.50;44.95;;;;;;;19.42;100.00;68927.59;4940501;28;20070;-77
2022/08/17 04:05:31;;;;;;;49.63;43.85;;;;;;;19.41;100.00;68931.88;4930207;29;20583;-78
2022/08/17 04:07:57;;;;;;;53.15;46.53;;;;;;;19.43;100.00;68928.75;4924749;29;20086;-78
2022/08/17 04:10:22;;;;;;;53.88;45.80;;;;;;;19.39;100.00;68930.13;4922874;29;20087;-77
2022/08/17 04:12:52;;;;;;;53.80;44.80;;;;;;;19.39;100.00;68933.44;4928724;29;20051;-78
2022/08/17 04:15:18;;;;;;;49.13;43.67;;;;;;;19.36;100.00;68929.41;4931716;28;20028;-78
2022/08/17 04:17:44;;;;;;;53.92;44.00;;;;;;;19.37;100.00;68930.56;4939158;28;20102;-77
2022/08/17 04:20:11;;;;;;;49.33;41.65;;;;;;;19.34;100.00;68919.63;4938473;28;20043;-78
2022/08/17 04:22:37;;;;;;;51.88;45.28;;;;;;;19.34;100.00;68927.16;4931863;28;22023;-77
2022/08/17 04:25:23;;;;;;;50.72;42.47;;;;;;;19.32;100.00;68922.72;4933333;29;20094;-79
2022/08/17 04:27:49;;;;;;;50.38;43.03;;;;;;;;;;4964552;28;20050;-78
2022/08/17 04:30:14;;;;;;;53.13;45.60;;;;;;;19.34;100.00;68927.16;4932068;29;20566;-77
2022/08/17 04:33:01;;;;;;;48.20;40.85;;;;;;;19.35;100.00;68925.56;4933088;28;20283;-78
2022/08/17 04:35:28;;;;;;;51.80;41.25;;;;;;;;;;4925876;29;20043;-77
2022/08/17 04:37:53;;;;;;;47.92;42.13;;;;;;;19.35;100.00;68925.56;4937786;29;20115;-78
2022/08/17 04:43:08;;;;;;;50.67;43.53;;;;;;;19.44;100.00;68929.88;4947947;28;20454;-77
2022/08/17 04:45:41;;;;;;;50.08;44.63;;;;;;;19.40;100.00;68931.28;4935621;28;20460;-77
2022/08/17 04:48:06;;;;;;;50.10;44.72;;;;;;;19.38;100.00;68929.56;4942511;29;20035;-77
2022/08/17 04:50:34;;;;;;;49.22;42.35;;;;;;;19.37;99.85;68927.88;4945534;28;20048;-77
2022/08/17 04:52:59;;;;;;;49.90;42.33;;;;;;;19.35;99.47;68925.56;4936054;28;20083;-77
2022/08/17 04:55:25;;;;;;;46.60;41.28;;;;;;;19.35;100.00;68920.19;4933861;28;20044;-77
2022/08/17 04:57:50;;;;;;;48.80;41.28;;;;;;;19.36;99.61;68926.72;4942217;28;20103;-77
2022/08/17 05:00:15;;;;;;;48.83;41.65;;;;;;;;;;4928615;28;20055;-77
2022/08/17 05:02:47;;;;;;;51.65;40.95;;;;;;;;;;4925001;29;20051;-77
2022/08/17 05:05:17;;;;;;;50.00;44.08;;;;;;;;;;4938022;28;20167;-77
2022/08/17 05:07:42;;;;;;;51.70;44.92;;;;;;;19.26;100.00;68915.31;4938711;29;20047;-77
2022/08/17 05:10:08;;;;;;;48.38;41.38;;;;;;;19.27;99.74;68916.44;4942500;28;20047;-77
2022/08/17 05:12:33;;;;;;;45.88;40.15;;;;;;;19.27;100.00;68917.00;4938851;29;20394;-77
2022/08/17 05:14:59;;;;;;;48.15;41.38;;;;;;;;;;4945136;29;20064;-77
2022/08/17 05:17:24;;;;;;;47.80;40.67;;;;;;;19.33;99.72;68917.88;4936760;28;20040;-77
2022/08/17 05:19:49;;;;;;;51.97;41.58;;;;;;;19.33;99.47;68923.28;4939997;28;20303;-77
2022/08/17 05:22:15;;;;;;;48.55;43.15;;;;;;;;;;4944562;28;20046;-77
2022/08/17 05:24:40;;;;;;;46.73;41.03;;;;;;;19.34;99.76;68919.63;4939465;28;20074;-77
2022/08/17 05:27:06;;;;;;;47.20;41.63;;;;;;;19.36;100.00;68927.31;4945112;28;20311;-77
2022/08/17 05:29:31;;;;;;;46.13;40.70;;;;;;;;;;4936655;28;20035;-77
2022/08/17 05:31:56;;;;;;;46.45;41.17;;;;;;;19.38;99.33;68923.59;4944982;28;20067;-77
2022/08/17 05:34:22;;;;;;;46.05;40.20;;;;;;;19.40;99.04;68931.28;4940143;28;20041;-77
2022/08/17 05:36:47;;;;;;;48.58;40.67;;;;;;;;;;4946114;28;20082;-77
2022/08/17 05:39:13;;;;;;;48.63;39.92;;;;;;;19.37;99.01;68928.44;4944470;28;20130;-77
2022/08/17 05:41:39;;;;;;;47.33;38.80;;;;;;;19.38;98.65;68929.56;4938992;28;20044;-77
2022/08/17 05:44:04;;;;;;;47.00;41.85;;;;;;;19.42;99.69;68933.59;4944167;28;20095;-77
2022/08/17 05:46:38;;;;;;;46.33;40.60;;;;;;;19.48;98.72;68942.56;4935434;28;20062;-77
2022/08/17 05:49:09;;;;;;;46.30;40.08;;;;;;;19.45;98.61;68931.63;4942218;28;20042;-77
2022/08/17 05:51:57;;;;;;;46.90;40.30;;;;;;;19.49;98.78;68941.00;4944918;28;20067;-78
2022/08/17 05:54:25;;;;;;;51.00;41.35;;;;;;;19.47;98.42;68939.28;4945539;28;20122;-78
2022/08/17 05:57:11;;;;;;;49.15;41.55;;;;;;;;;;4951348;28;20130;-78
2022/08/17 05:59:42;;;;;;;49.42;41.58;;;;;;;;;;4953592;28;20107;-78
2022/08/17 06:02:17;;;;;;;49.33;41.70;;;;;;;;;;4934070;29;20506;-78
2022/08/17 06:04:43;;;;;;;45.33;39.42;;;;;;;19.64;97.39;68960.84;4934452;29;20487;-78
2022/08/17 06:07:30;;;;;;;46.58;36.92;;;;;;;19.71;97.28;68960.78;4933749;29;20171;-78
2022/08/17 06:09:58;;;;;;;44.25;38.55;;;;;;;;;;4945457;29;20040;-78
2022/08/17 06:12:26;;;;;;;43.13;38.28;;;;;;;19.87;97.78;68977.91;4937445;28;20261;-78
2022/08/17 06:15:06;;;;;;;42.72;37.40;;;;;;;;;;4934121;29;20072;-77
2022/08/17 06:17:32;;;;;;;41.95;36.28;;;;;;;20.05;95.34;68999.06;4935517;29;20052;-78
2022/08/17 06:20:02;;;;;;;40.35;35.88;;;;;;;20.16;94.59;69015.91;4935830;29;20048;-78
2022/08/17 06:22:32;;;;;;;41.35;36.22;;;;;;;;;;4954223;28;20523;-78
2022/08/17 06:25:12;;;;;;;37.97;32.92;;;;;;;20.36;93.38;69033.34;4952179;28;20055;-78
2022/08/17 06:27:41;;;;;;;38.05;34.05;;;;;;;;;;4948742;28;20051;-78
2022/08/17 06:30:10;;;;;;;37.88;32.70;;;;;;;20.54;93.27;69053.38;4952684;29;20120;-78
2022/08/17 06:32:37;;;;;;;;;;;;;;;20.56;92.17;69055.69;4945727;28;20108;-78
2022/08/17 06:35:06;;;;;;;39.25;32.20;;;;;;;20.55;91.89;69059.94;4952256;28;19922;-78
2022/08/17 06:37:49;;;;;;;37.05;32.92;;;;;;;20.62;91.78;69061.97;4936044;28;20047;-78
2022/08/17 06:40:33;;;;;;;36.08;30.95;;;;;;;;;;4936386;29;20400;-78
2022/08/17 06:43:16;;;;;;;34.90;31.10;;;;;;;;;;4936309;28;20532;-78
2022/08/17 06:46:22;;;;;;;35.67;31.45;;;;;;;20.94;90.94;69104.00;4937033;29;20094;-78
2022/08/17 06:49:01;;;;;;;34.50;30.67;;;;;;;21.00;90.47;69104.84;4895153;29;20604;-78
2022/08/17 06:51:26;;;;;;;34.50;29.50;;;;;;;;;;4936788;28;20071;-78
2022/08/17 06:54:05;;;;;;;34.77;31.20;;;;;;;21.23;89.90;69127.31;4935071;29;20067;-77
2022/08/17 06:56:39;;;;;;;;;;;;;;;21.30;88.23;69138.59;4922452;29;20048;-77
2022/08/17 06:59:08;;;;;;;30.50;27.13;;;;;;;21.37;89.57;69146.06;4949231;28;20275;-77
2022/08/17 07:01:38;;;;;;;32.00;28.10;;;;;;;21.47;87.65;69154.81;4952860;28;20036;-77
2022/08/17 07:04:10;;;;;;;32.30;27.98;;;;;;;21.62;87.33;69174.09;4949677;28;20502;-77
2022/08/17 07:06:39;;;;;;;30.90;26.27;;;;;;;;;;4952150;28;20181;-77
2022/08/17 07:09:16;;;;;;;26.83;24.02;;;;;;;21.88;84.94;69200.00;4936360;28;20061;-77
2022/08/17 07:11:55;;;;;;;26.13;22.55;;;;;;;21.97;84.51;69213.03;4935435;29;20043;-78
2022/08/17 07:14:26;;;;;;;26.52;23.25;;;;;;;;;;4945277;28;20039;-78
2022/08/17 07:16:55;;;;;;;29.25;21.90;;;;;;;22.25;84.38;69245.09;4944217;29;20058;-77
2022/08/17 07:19:22;;;;;;;25.33;22.67;;;;;;;;;;4940181;29;20158;-77
2022/08/17 07:22:21;;;;;;;26.20;23.38;;;;;;;22.42;82.78;69268.84;4941600;28;20048;-77
2022/08/17 07:24:56;;;;;;;24.83;20.35;;;;;;;22.47;82.10;69274.56;4927270;29;20047;-77
2022/08/17 07:27:23;;;;;;;23.17;20.77;;;;;;;22.52;81.40;69280.88;4947196;28;20035;-77
2022/08/17 07:29:52;;;;;;;21.55;19.35;;;;;;;;;;4944606;28;20039;-78
2022/08/17 07:32:23;;;;;;;;;;;;;;;22.60;80.94;69284.03;4941616;28;20081;-77
2022/08/17 07:35:01;;;;;;;22.95;18.48;;;;;;;22.56;79.13;69279.47;4953222;28;19953;-78
2022/08/17 07:37:26;;;;;;;18.73;16.93;;;;;;;22.67;78.74;69291.47;4946715;28;20060;-78
2022/08/17 07:39:51;;;;;;;18.77;16.75;;;;;;;;;;4944547;29;20062;-77
2022/08/17 07:42:17;;;;;;;19.58;17.60;;;;;;;;;;4948024;28;20043;-77
2022/08/17 07:44:51;;;;;;;19.67;16.17;;;;;;;;;;4944725;29;20094;-78
2022/08/17 07:50:00;;;;;;;25.00;18.35;;;;;;;22.79;77.04;69305.22;4932986;29;20099;-77
2022/08/17 07:52:28;;;;;;;23.85;19.40;;;;;;;22.78;77.82;69308.94;4934107;29;20360;-77
2022/08/17 07:54:53;;;;;;;23.67;18.95;;;;;;;22.70;78.03;69295.50;4933439;29;20043;-77
2022/08/17 07:57:18;;;;;;;26.05;20.58;;;;;;;;;;4933171;29;20106;-77
2022/08/17 07:59:59;;;;;;;25.00;22.27;;;;;;;22.65;78.09;69289.19;4933743;29;20074;-77
2022/08/17 08:02:44;;;;;;;25.35;21.25;;;;;;;22.67;78.13;69291.47;4942637;29;20043;-77
2022/08/17 08:05:11;;;;;;;25.15;22.42;;;;;;;22.73;76.60;69298.94;4951809;28;20055;-77
2022/08/17 08:08:00;;;;;;;25.25;22.05;;;;;;;22.82;77.36;69308.09;4947863;28;20356;-77
2022/08/17 08:10:40;;;;;;;24.40;21.48;;;;;;;22.81;76.96;69306.94;4933991;29;20055;-78
2022/08/17 08:13:10;;;;;;;24.42;20.55;;;;;;;;;;4931988;29;20047;-77
2022/08/17 08:15:47;;;;;;;27.17;21.83;;;;;;;22.84;77.50;69310.38;4942789;29;20055;-78
2022/08/17 08:18:33;;;;;;;26.50;23.10;;;;;;;23.07;77.16;69342.16;4948685;28;20043;-78
2022/08/17 08:21:20;;;;;;;26.42;23.65;;;;;;;23.06;77.16;69341.03;4928146;29;20048;-78
2022/08/17 08:23:51;;;;;;;25.85;21.20;;;;;;;;;;4942288;29;20039;-78
2022/08/17 08:26:25;;;;;;;25.42;22.77;;;;;;;23.28;76.29;69359.66;4951045;28;20106;-78
2022/08/17 08:28:50;;;;;;;24.55;21.98;;;;;;;;;;4950135;28;20051;-78
2022/08/17 08:31:36;;;;;;;27.90;24.75;;;;;;;23.35;75.32;69367.69;4933682;29;20048;-78
2022/08/17 08:34:24;;;;;;;26.00;23.20;;;;;;;;;;4944428;29;20039;-78
2022/08/17 08:37:20;;;;;;;28.88;22.63;;;;;;;23.58;76.09;69391.31;4926234;29;20044;-78
2022/08/17 08:40:00;;;;;;;22.52;20.13;;;;;;;23.73;74.80;69410.09;4944009;28;20046;-78
2022/08/17 08:42:48;;;;;;;22.65;18.98;;;;;;;;;;4951843;28;20098;-78
2022/08/17 08:45:39;;;;;;;24.07;21.67;;;;;;;23.89;74.36;69428.44;4935530;28;20118;-78
2022/08/17 08:48:12;;;;;;;23.20;20.70;;;;;;;23.87;74.59;69426.72;4955924;28;20043;-78
2022/08/17 08:50:47;;;;;;;24.48;21.65;;;;;;;23.90;73.36;69424.16;4945548;28;20043;-78
2022/08/17 08:53:26;;;;;;;23.27;19.98;;;;;;;23.91;73.76;69430.16;4932450;28;20131;-78
2022/08/17 08:55:59;;;;;;;22.67;20.40;;;;;;;;;;4952045;28;20101;-78
2022/08/17 08:58:52;;;;;;;23.85;19.35;;;;;;;24.09;73.66;69451.38;4941264;28;20381;-78
2022/08/17 09:01:23;;;;;;;21.63;19.20;;;;;;;24.14;71.54;69455.94;4945702;29;20043;-78
2022/08/17 09:03:57;;;;;;;22.08;19.15;;;;;;;24.11;71.28;69453.09;4947741;28;20043;-78
2022/08/17 09:06:37;;;;;;;20.85;18.35;;;;;;;24.19;72.88;69461.69;4954984;28;20591;-78
2022/08/17 09:09:24;;;;;;;20.10;18.08;;;;;;;24.26;70.73;69470.28;4956232;28;20414;-78
2022/08/17 09:12:00;;;;;;;23.30;18.65;;;;;;;;;;4966985;28;20053;-78
2022/08/17 09:14:30;;;;;;;23.67;19.10;;;;;;;24.32;72.80;69476.59;4934764;29;20050;-79
2022/08/17 09:17:12;;;;;;;21.05;18.88;;;;;;;24.45;71.17;69491.50;4930187;29;20051;-76
2022/08/17 09:19:43;;;;;;;20.40;17.48;;;;;;;24.56;71.74;69498.13;4934158;29;20047;-79
2022/08/17 09:22:23;;;;;;;21.63;18.85;;;;;;;24.62;71.23;69509.88;4941962;29;20052;-78
2022/08/17 09:25:05;;;;;;;19.02;17.05;;;;;;;24.56;70.40;69498.13;4957700;28;20076;-78
2022/08/17 09:27:44;;;;;;;20.60;18.42;;;;;;;24.59;70.37;69504.28;4933823;29;20039;-78
2022/08/17 09:30:10;;;;;;;18.15;16.27;;;;;;;24.59;69.45;69507.00;4930962;29;20107;-78
2022/08/17 09:32:42;;;;;;;18.50;16.15;;;;;;;24.62;68.15;69510.44;4947514;28;20127;-78
2022/08/17 09:35:18;;;;;;;18.95;15.20;;;;;;;;;;4934756;29;20052;-78
2022/08/17 09:37:47;;;;;;;17.55;14.90;;;;;;;;;;4935287;29;20043;-79
2022/08/17 09:40:31;;;;;;;16.85;14.73;;;;;;;24.83;65.34;69531.25;4940846;28;20384;-78
2022/08/17 09:43:08;;;;;;;15.30;13.20;;;;;;;24.87;65.41;69538.53;4953920;23;21090;-77
2022/08/17 09:45:49;;;;;;;14.60;12.63;;;;;;;24.78;65.15;69528.22;4909817;29;20135;-76
2022/08/17 09:48:24;;;;;;;15.32;13.52;;;;;;;24.87;66.89;69537.97;4911498;29;20040;-77
2022/08/17 09:51:14;;;;;;;20.55;15.63;;;;;;;;;;4903661;29;20036;-77
2022/08/17 09:53:42;;;;;;;17.25;13.15;;;;;;;24.87;67.29;69537.97;4906879;29;20060;-76
2022/08/17 09:56:27;;;;;;;17.10;14.90;;;;;;;24.87;65.80;69538.53;4914073;29;20540;-76
2022/08/17 09:59:24;;;;;;;17.00;15.27;;;;;;;24.87;65.86;69535.25;4922346;29;20310;-75
2022/08/17 10:02:24;;;;;;;14.43;12.95;;;;;;;25.06;67.23;69559.19;4922046;29;20044;-77
2022/08/17 10:04:52;;;;;;;15.25;12.55;;;;;;;;;;4921119;29;20704;-78
2022/08/17 10:07:25;;;;;;;14.90;12.77;;;;;;;;;;4906839;29;20151;-77
2022/08/17 10:10:18;;;;;;;14.63;13.13;;;;;;;25.19;63.69;69574.13;4906922;29;20059;-78
2022/08/17 10:13:09;;;;;;;16.35;12.65;;;;;;;25.21;64.23;69576.44;4902067;29;20051;-78
2022/08/17 10:15:59;;;;;;;13.65;12.23;;;;;;;25.14;65.31;69568.38;4903565;29;20551;-76
2022/08/17 10:18:34;;;;;;;14.75;12.63;;;;;;;25.17;64.99;69577.28;4905905;29;20033;-76
2022/08/17 10:26:39;;;;;;;15.07;13.07;;;;;;;25.16;64.49;69570.69;4904782;29;20143;-77
2022/08/17 10:29:25;;;;;;;15.23;13.57;;;;;;;;;;4900139;29;20111;-77
2022/08/17 10:31:56;;;;;;;15.88;13.90;;;;;;;25.13;64.24;69564.50;4901490;29;20435;-78
2022/08/17 10:34:50;;;;;;;16.50;12.93;;;;;;;25.35;64.92;69592.50;4904935;29;20051;-77
2022/08/17 10:37:47;;;;;;;15.00;13.25;;;;;;;25.36;64.19;69590.91;4904696;29;20155;-77
2022/08/17 10:40:48;;;;;;;12.43;11.13;;;;;;;25.48;64.70;69606.81;4907495;29;20044;-77
2022/08/17 10:43:32;;;;;;;14.75;12.23;;;;;;;25.54;64.79;69613.16;4899339;29;20469;-77
2022/08/17 10:46:21;;;;;;;14.90;12.32;;;;;;;25.56;64.14;69615.44;4890853;29;20389;-77
2022/08/17 10:49:07;;;;;;;;;;;;;;;25.67;63.53;69623.19;4899598;29;20048;-76
2022/08/17 10:51:38;;;;;;;15.05;11.40;;;;;;;25.62;64.50;69619.59;4902721;29;20387;-77
2022/08/17 10:54:06;;;;;;;13.75;11.70;;;;;;;25.70;62.58;69628.78;4906632;29;20060;-76
2022/08/17 10:56:44;;;;;;;16.48;12.23;;;;;;;25.76;63.12;69637.81;4903274;29;20044;-78
2022/08/17 10:59:35;;;;;;;15.50;13.90;;;;;;;25.69;63.19;69629.78;4908170;29;20067;-76
2022/08/17 11:02:40;;;;;;;16.65;14.95;;;;;;;25.44;63.98;69599.53;4919052;29;20041;-77
2022/08/17 11:05:31;;;;;;;16.17;14.43;;;;;;;25.44;64.99;69602.81;4916266;29;20044;-77
2022/08/17 11:08:13;;;;;;;17.73;15.20;;;;;;;25.49;64.73;69605.25;4903880;29;20044;-77
2022/08/17 11:10:59;;;;;;;17.33;14.45;;;;;;;25.55;64.18;69611.56;4903710;29;20040;-78
2022/08/17 11:14:05;;;;;;;15.13;13.52;;;;;;;25.63;65.01;69621.31;4891100;29;20039;-78
2022/08/17 11:16:33;;;;;;;16.00;14.40;;;;;;;25.48;64.77;69603.53;4892069;29;20084;-77
2022/08/17 11:19:23;;;;;;;16.50;14.80;;;;;;;;;;4894714;29;20056;-77
2022/08/17 11:22:17;;;;;;;15.73;14.13;;;;;;;25.55;64.64;69612.16;4911579;29;20568;-77
2022/08/17 11:24:46;;;;;;;15.48;13.55;;;;;;;25.72;64.00;69630.50;4902716;29;20075;-76
2022/08/17 11:27:27;;;;;;;15.95;13.88;;;;;;;25.66;65.06;69624.78;4903322;29;20507;-77
2022/08/17 11:29:57;;;;;;;16.17;13.32;;;;;;;25.64;65.58;69624.63;4889432;29;20055;-78
2022/08/17 11:32:51;;;;;;;14.60;12.75;;;;;;;25.72;66.10;69631.09;4893383;29;20044;-77
2022/08/17 11:35:19;;;;;;;13.55;11.50;;;;;;;25.75;67.77;69637.25;4901736;29;20388;-77
2022/08/17 11:38:24;;;;;;;15.23;12.80;;;;;;;25.67;66.36;69625.34;4895738;29;20048;-77
2022/08/17 11:41:14;;;;;;;17.30;13.27;;;;;;;25.63;65.83;69623.47;4888199;29;20048;-77
2022/08/17 11:44:14;;;;;;;14.60;13.02;;;;;;;25.64;66.26;69624.63;4887197;29;20143;-77
2022/08/17 11:52:48;;;;;;;17.40;14.65;;;;;;;;;;4906635;29;20059;-78
2022/08/17 11:55:33;;;;;;;15.35;13.30;;;;;;;;;;4902732;29;20039;-76
2022/08/17 11:58:39;;;;;;;13.70;12.38;;;;;;;25.80;66.30;69642.97;4906853;29;20419;-76
2022/08/17 12:01:08;;;;;;;16.27;13.40;;;;;;;25.76;65.40;69635.09;4908583;29;20039;-78
2022/08/17 12:03:36;;;;;;;14.20;12.73;;;;;;;25.77;64.16;69634.09;4902656;29;20048;-77
2022/08/17 12:06:30;;;;;;;13.45;11.40;;;;;;;25.91;66.92;69651.75;4909380;29;20392;-76
2022/08/17 12:09:05;;;;;;;12.85;10.48;;;;;;;;;;4907326;29;20064;-77
2022/08/17 12:11:54;;;;;;;13.02;10.98;;;;;;;25.91;63.28;69655.06;4907478;29;20051;-76
2022/08/17 12:14:25;;;;;;;;;;;;;;;25.94;64.08;69655.19;4906147;29;20046;-76
2022/08/17 12:17:13;;;;;;;16.77;12.73;;;;;;;25.65;63.93;69626.34;4900294;29;19922;-76
2022/08/17 12:19:41;;;;;;;18.63;14.23;;;;;;;25.60;64.58;69617.28;4895595;29;20033;-77
2022/08/17 12:22:16;;;;;;;18.02;14.77;;;;;;;25.48;64.00;69606.25;4892382;29;20508;-77
2022/08/17 12:24:44;;;;;;;20.33;16.85;;;;;;;25.39;64.74;69597.06;4905093;29;20044;-76
2022/08/17 12:27:11;;;;;;;23.35;18.83;;;;;;;25.38;65.18;69590.47;4909751;29;20127;-77
2022/08/17 12:29:41;;;;;;;20.80;17.88;;;;;;;25.31;65.58;69582.44;4907906;29;20124;-77
2022/08/17 12:32:16;;;;;;;19.80;15.70;;;;;;;25.24;66.27;69579.31;4903648;29;20489;-77
2022/08/17 12:34:43;;;;;;;18.02;15.52;;;;;;;25.17;65.82;69566.38;4891853;29;20052;-77
2022/08/17 12:37:25;;;;;;;22.48;17.85;;;;;;;25.16;65.97;69567.97;4889798;29;20496;-77
2022/08/17 12:39:57;;;;;;;20.90;18.10;;;;;;;25.04;65.54;69556.91;4896990;29;20051;-76
2022/08/17 12:42:28;;;;;;;23.65;18.50;;;;;;;24.85;66.77;69536.25;4906868;29;20180;-76
2022/08/17 12:44:54;;;;;;;24.02;21.15;;;;;;;24.64;68.82;69512.16;4887593;29;20048;-77
2022/08/17 12:47:20;;;;;;;26.45;21.90;;;;;;;24.50;69.64;69493.97;4898620;29;20071;-77
2022/08/17 12:49:49;;;;;;;26.42;21.83;;;;;;;24.28;71.18;69469.28;4906473;29;20048;-78
2022/08/17 12:52:26;;;;;;;28.50;24.33;;;;;;;24.14;72.09;69456.53;4916149;29;20040;-77
2022/08/17 12:55:04;;;;;;;30.10;25.45;;;;;;;24.03;73.21;69444.50;4898963;29;20404;-77
2022/08/17 12:57:43;;;;;;;28.73;24.27;;;;;;;23.94;74.12;69431.47;4906486;29;20048;-77
2022/08/17 13:00:17;;;;;;;29.40;25.90;;;;;;;23.82;74.92;69412.25;4905257;29;20052;-76